createdAt,value
2023-01-26T00:00:10.404Z,110.60
2023-01-26T00:02:56.120Z,112.20
2023-01-26T00:05:42.059Z,114.30
2023-01-26T00:08:28.913Z,112.75
2023-01-26T00:11:16.823Z,103.88
2023-01-26T00:14:03.754Z,114.07
2023-01-26T00:16:49.209Z,115.10
2023-01-26T00:19:36.119Z,114.63
2023-01-26T00:22:22.615Z,118.28
2023-01-26T00:25:10.363Z,115.35
2023-01-26T00:27:58.623Z,123.83
2023-01-26T00:30:44.847Z,110.20
2023-01-26T00:33:30.836Z,115.82
2023-01-26T00:36:18.013Z,116.22
2023-01-26T00:39:05.857Z,124.05
2023-01-26T00:42:09.693Z,114.50
2023-01-26T00:44:55.300Z,120.05
2023-01-26T00:47:41.277Z,112.97
2023-01-26T00:50:27.683Z,118.32
2023-01-26T00:53:15.433Z,117.20
2023-01-26T00:56:01.551Z,120.05
2023-01-26T00:58:49.008Z,124.43
2023-01-26T01:01:35.730Z,116.55
2023-01-26T01:04:21.801Z,125.25
2023-01-26T01:07:07.659Z,112.07
2023-01-26T01:09:53.280Z,115.57
2023-01-26T01:12:39.409Z,114.40
2023-01-26T01:15:26.306Z,111.30
2023-01-26T01:18:12.098Z,112.22
2023-01-26T01:20:57.787Z,110.20
2023-01-26T01:23:43.948Z,105.93
2023-01-26T01:26:29.681Z,106.38
2023-01-26T01:29:15.703Z,106.45
2023-01-26T01:32:02.537Z,105.00
2023-01-26T01:34:48.957Z,100.47
2023-01-26T01:37:34.869Z,108.03
2023-01-26T01:40:20.907Z,106.25
2023-01-26T01:43:11.744Z,98.70
2023-01-26T01:46:00.231Z,94.53
2023-01-26T01:48:52.890Z,93.38
2023-01-26T01:51:43.820Z,92.65
2023-01-26T01:54:33.993Z,92.13
2023-01-26T01:57:27.977Z,101.53
2023-01-26T02:00:16.073Z,92.63
2023-01-26T02:03:19.049Z,88.40
2023-01-26T02:06:10.733Z,98.40
2023-01-26T02:08:57.851Z,99.47
2023-01-26T02:11:45.851Z,106.35
2023-01-26T02:14:33.064Z,94.10
2023-01-26T02:17:18.828Z,109.38
2023-01-26T02:20:12.069Z,99.70
2023-01-26T02:23:07.973Z,99.93
2023-01-26T02:26:20.502Z,94.38
2023-01-26T02:29:10.031Z,90.28
2023-01-26T02:32:00.549Z,84.03
2023-01-26T02:34:46.343Z,90.95
2023-01-26T02:37:32.242Z,96.75
2023-01-26T02:40:30.435Z,91.47
2023-01-26T02:43:18.486Z,93.88
2023-01-26T02:46:04.513Z,98.55
2023-01-26T02:49:12.525Z,88.25
2023-01-26T02:51:58.114Z,86.13
2023-01-26T02:55:02.102Z,86.85
2023-01-26T02:57:48.267Z,83.35
2023-01-26T03:00:41.994Z,89.93
2023-01-26T03:03:41.863Z,86.13
2023-01-26T03:06:27.706Z,95.93
2023-01-26T03:09:16.163Z,84.10
2023-01-26T03:12:01.891Z,84.88
2023-01-26T03:15:07.469Z,82.45
2023-01-26T03:18:21.515Z,89.40
2023-01-26T03:21:31.636Z,85.65
2023-01-26T03:24:36.276Z,82.75
2023-01-26T03:27:26.929Z,83.72
2023-01-26T03:30:16.562Z,86.45
2023-01-26T03:33:06.017Z,69.77
2023-01-26T03:35:54.273Z,92.85
2023-01-26T03:38:42.050Z,86.00
2023-01-26T03:41:47.129Z,84.70
2023-01-26T03:44:51.109Z,83.78
2023-01-26T03:47:57.791Z,93.28
2023-01-26T03:51:03.516Z,84.28
2023-01-26T03:54:07.658Z,84.70
2023-01-26T03:56:53.892Z,83.82
2023-01-26T03:59:39.646Z,86.43
2023-01-26T04:02:47.112Z,87.40
2023-01-26T04:05:51.044Z,82.43
2023-01-26T04:08:38.220Z,85.40
2023-01-26T04:11:24.179Z,77.80
2023-01-26T04:14:31.316Z,79.40
2023-01-26T04:17:40.727Z,87.93
2023-01-26T04:20:45.258Z,77.28
2023-01-26T04:23:32.446Z,80.13
2023-01-26T04:26:19.380Z,84.43
2023-01-26T04:29:07.398Z,83.38
2023-01-26T04:31:53.466Z,83.30
2023-01-26T04:34:41.088Z,87.90
2023-01-26T04:37:34.456Z,87.53
2023-01-26T04:40:20.828Z,73.03
2023-01-26T04:43:09.559Z,78.78
2023-01-26T04:46:00.226Z,79.80
2023-01-26T04:48:47.690Z,73.32
2023-01-26T04:51:33.499Z,76.32
2023-01-26T04:54:19.616Z,73.50
2023-01-26T04:57:06.062Z,77.75
2023-01-26T04:59:54.305Z,73.43
2023-01-26T05:02:40.643Z,71.28
2023-01-26T05:05:27.678Z,75.97
2023-01-26T05:08:13.755Z,76.18
2023-01-26T05:10:59.674Z,64.85
2023-01-26T05:13:59.976Z,74.43
2023-01-26T05:17:16.220Z,77.20
2023-01-26T05:20:27.991Z,72.30
2023-01-26T05:23:33.436Z,81.70
2023-01-26T05:26:22.421Z,72.10
2023-01-26T05:29:26.757Z,73.45
2023-01-26T05:32:12.644Z,71.18
2023-01-26T05:35:00.137Z,86.13
2023-01-26T05:37:46.134Z,75.03
2023-01-26T05:40:33.287Z,73.25
2023-01-26T05:43:19.181Z,71.68
2023-01-26T05:46:27.668Z,78.22
2023-01-26T05:49:13.471Z,71.60
2023-01-26T05:52:01.560Z,71.03
2023-01-26T05:54:48.514Z,74.40
2023-01-26T05:57:34.837Z,74.93
2023-01-26T06:00:24.466Z,72.55
2023-01-26T06:03:18.350Z,74.35
2023-01-26T06:06:06.346Z,80.35
2023-01-26T06:09:16.784Z,76.47
2023-01-26T06:12:23.448Z,78.88
2023-01-26T06:15:15.182Z,79.93
2023-01-26T06:18:04.078Z,76.53
2023-01-26T06:20:50.593Z,83.68
2023-01-26T06:23:36.394Z,87.63
2023-01-26T06:26:24.602Z,81.63
2023-01-26T06:29:10.829Z,84.30
2023-01-26T06:31:56.472Z,85.05
2023-01-26T06:34:42.558Z,83.07
2023-01-26T06:37:28.636Z,89.50
2023-01-26T06:40:15.080Z,90.18
2023-01-26T06:43:04.341Z,85.90
2023-01-26T06:45:51.377Z,83.63
2023-01-26T06:48:39.063Z,86.25
2023-01-26T06:51:44.860Z,101.90
2023-01-26T06:54:31.120Z,89.07
2023-01-26T06:57:36.633Z,87.55
2023-01-26T07:00:31.200Z,89.63
2023-01-26T07:03:37.625Z,85.88
2023-01-26T07:06:23.555Z,85.15
2023-01-26T07:09:10.353Z,78.57
2023-01-26T07:11:56.024Z,91.28
2023-01-26T07:14:41.858Z,86.50
2023-01-26T07:17:32.131Z,78.38
2023-01-26T07:20:18.247Z,64.30
2023-01-26T07:23:03.855Z,82.45
2023-01-26T07:25:49.670Z,88.10
2023-01-26T07:28:35.670Z,90.95
2023-01-26T07:31:21.287Z,86.53
2023-01-26T07:34:09.604Z,92.28
2023-01-26T07:36:56.149Z,105.30
2023-01-26T07:39:42.027Z,85.50
2023-01-26T07:42:27.870Z,117.10
2023-01-26T07:45:22.508Z,105.97
2023-01-26T07:48:09.658Z,108.85
2023-01-26T07:50:59.535Z,91.43
2023-01-26T07:53:45.312Z,111.47
2023-01-26T07:56:31.281Z,97.50
2023-01-26T07:59:16.990Z,96.50
2023-01-26T08:02:02.760Z,102.75
2023-01-26T08:04:49.289Z,99.05
2023-01-26T08:07:36.460Z,106.50
2023-01-26T08:10:22.263Z,117.50
2023-01-26T08:13:07.965Z,116.95
2023-01-26T08:15:53.940Z,118.57
2023-01-26T08:18:39.941Z,123.90
2023-01-26T08:21:25.683Z,123.95
2023-01-26T08:24:13.423Z,133.30
2023-01-26T08:26:59.325Z,140.25
2023-01-26T08:29:45.119Z,113.35
2023-01-26T08:32:32.635Z,107.85
2023-01-26T08:35:18.171Z,125.53
2023-01-26T08:38:04.788Z,114.07
2023-01-26T08:40:54.479Z,112.15
2023-01-26T08:43:40.477Z,122.22
2023-01-26T08:46:26.216Z,109.20
2023-01-26T08:49:11.920Z,113.32
2023-01-26T08:51:57.713Z,117.90
2023-01-26T08:54:43.355Z,120.53
2023-01-26T08:57:30.445Z,107.75
2023-01-26T09:00:16.845Z,111.88
2023-01-26T09:03:04.250Z,92.15
2023-01-26T09:05:50.231Z,102.18
2023-01-26T09:08:36.623Z,103.75
2023-01-26T09:11:22.240Z,122.53
2023-01-26T09:14:09.431Z,119.32
2023-01-26T09:16:55.142Z,103.18
2023-01-26T09:19:41.164Z,103.22
2023-01-26T09:22:28.280Z,114.57
2023-01-26T09:25:14.748Z,108.05
2023-01-26T09:28:04.027Z,105.03
2023-01-26T09:30:52.493Z,98.47
2023-01-26T09:33:38.603Z,96.05
2023-01-26T09:36:24.643Z,91.53
2023-01-26T09:39:10.513Z,94.72
2023-01-26T09:42:06.777Z,102.07
2023-01-26T09:44:57.793Z,95.57
2023-01-26T09:47:59.290Z,95.90
2023-01-26T09:53:41.717Z,99.68
2023-01-26T09:56:30.313Z,69.72
2023-01-26T09:59:25.778Z,94.55
2023-01-26T10:02:22.940Z,94.47
2023-01-26T10:05:24.525Z,97.10
2023-01-26T10:08:12.994Z,108.05
2023-01-26T10:11:02.264Z,123.95
2023-01-26T10:13:53.691Z,85.82
2023-01-26T10:16:40.629Z,75.80
2023-01-26T10:19:34.528Z,72.13
2023-01-26T10:22:27.505Z,79.20
2023-01-26T10:25:16.478Z,59.95
2023-01-26T10:28:12.287Z,62.92
2023-01-26T10:30:58.214Z,53.83
2023-01-26T10:33:51.557Z,47.30
2023-01-26T10:36:37.495Z,40.20
2023-01-26T10:39:24.216Z,41.90
2023-01-26T10:42:18.877Z,44.60
2023-01-26T10:45:23.127Z,42.67
2023-01-26T10:48:18.701Z,32.72
2023-01-26T10:51:15.615Z,38.50
2023-01-26T10:54:14.846Z,41.70
2023-01-26T10:57:07.173Z,50.70
2023-01-26T10:59:56.004Z,31.33
2023-01-26T11:02:50.236Z,31.63
2023-01-26T11:05:36.260Z,33.75
2023-01-26T11:08:34.992Z,39.20
2023-01-26T11:11:26.467Z,38.00
2023-01-26T11:14:17.144Z,32.80
2023-01-26T11:17:16.627Z,69.68
2023-01-26T11:20:33.070Z,30.77
2023-01-26T11:23:33.513Z,33.25
2023-01-26T11:26:44.345Z,33.28
2023-01-26T11:30:00.259Z,28.70
2023-01-26T11:32:55.878Z,28.58
2023-01-26T11:35:51.777Z,31.55
2023-01-26T11:38:41.019Z,26.90
2023-01-26T11:41:40.646Z,41.00
2023-01-26T11:44:45.099Z,35.88
2023-01-26T11:47:50.258Z,33.28
2023-01-26T11:50:45.595Z,25.52
2023-01-26T11:53:52.380Z,24.77
2023-01-26T11:56:48.144Z,34.45
2023-01-26T11:59:38.733Z,25.85
2023-01-26T12:02:29.433Z,25.83
2023-01-26T12:05:22.268Z,22.73
2023-01-26T12:08:15.579Z,25.27
2023-01-26T12:11:25.680Z,22.92
2023-01-26T12:14:18.887Z,13.48
2023-01-26T12:17:30.508Z,19.17
2023-01-26T12:20:27.438Z,16.35
2023-01-26T12:23:27.426Z,51.42
2023-01-26T12:26:16.097Z,75.13
2023-01-26T12:29:09.893Z,117.97
2023-01-26T12:31:59.767Z,66.13
2023-01-26T12:34:45.509Z,28.88
2023-01-26T12:37:47.629Z,24.13
2023-01-26T12:40:39.491Z,22.02
2023-01-26T12:46:17.949Z,18.25
2023-01-26T12:49:06.387Z,21.85
2023-01-26T12:51:59.283Z,39.72
2023-01-26T12:54:53.655Z,28.08
2023-01-26T12:57:45.542Z,23.60
2023-01-26T13:00:34.127Z,13.57
2023-01-26T13:03:24.232Z,33.72
2023-01-26T13:06:21.984Z,18.58
2023-01-26T13:09:21.499Z,17.52
2023-01-26T13:12:45.862Z,15.05
2023-01-26T13:15:33.048Z,14.90
2023-01-26T13:18:19.043Z,36.28
2023-01-26T13:21:04.942Z,34.53
2023-01-26T13:23:52.482Z,14.23
2023-01-26T13:26:48.351Z,21.73
2023-01-26T13:29:36.135Z,16.48
2023-01-26T13:33:02.254Z,20.30
2023-01-26T13:35:50.140Z,14.25
2023-01-26T13:38:40.347Z,17.10
2023-01-26T13:41:26.169Z,19.70
2023-01-26T13:44:17.159Z,17.52
2023-01-26T13:49:52.919Z,9.65
2023-01-26T13:52:43.182Z,17.05
2023-01-26T13:55:31.881Z,25.83
2023-01-26T13:58:18.899Z,42.67
2023-01-26T14:01:06.991Z,39.10
2023-01-26T14:04:05.054Z,39.47
2023-01-26T14:06:55.051Z,72.50
2023-01-26T14:09:45.775Z,24.02
2023-01-26T14:12:35.571Z,23.17
2023-01-26T14:15:24.527Z,33.45
2023-01-26T14:18:20.985Z,29.80
2023-01-26T14:21:19.817Z,22.45
2023-01-26T14:24:09.580Z,21.95
2023-01-26T14:26:55.821Z,21.35
2023-01-26T14:29:42.522Z,16.50
2023-01-26T14:32:29.904Z,21.08
2023-01-26T14:35:23.259Z,14.32
2023-01-26T14:38:19.173Z,21.77
2023-01-26T14:41:11.746Z,65.18
2023-01-26T14:44:02.291Z,20.48
2023-01-26T14:46:56.536Z,19.30
2023-01-26T14:49:48.814Z,11.40
2023-01-26T14:52:40.271Z,16.65
2023-01-26T14:55:29.675Z,17.00
2023-01-26T14:58:19.951Z,22.73
2023-01-26T15:01:06.118Z,13.37
2023-01-26T15:03:59.670Z,15.00
2023-01-26T15:06:45.762Z,13.10
2023-01-26T15:09:32.119Z,21.65
2023-01-26T15:12:19.500Z,9.65
2023-01-26T15:15:13.995Z,14.25
2023-01-26T15:18:17.598Z,12.10
2023-01-26T15:21:12.930Z,13.70
2023-01-26T15:23:58.984Z,10.02
2023-01-26T15:26:45.167Z,13.38
2023-01-26T15:29:34.399Z,11.43
2023-01-26T15:32:29.863Z,10.32
2023-01-26T15:35:21.399Z,9.88
2023-01-26T15:38:11.741Z,13.02
2023-01-26T15:40:59.164Z,12.60
2023-01-26T15:43:45.080Z,15.55
2023-01-26T15:46:32.470Z,23.83
2023-01-26T15:49:20.137Z,17.33
2023-01-26T15:52:13.549Z,12.88
2023-01-26T15:54:59.295Z,21.88
2023-01-26T15:57:44.774Z,14.20
2023-01-26T16:00:30.241Z,21.42
2023-01-26T16:03:19.982Z,19.00
2023-01-26T16:06:06.281Z,16.02
2023-01-26T16:08:52.214Z,13.27
2023-01-26T16:11:44.185Z,12.95
2023-01-26T16:14:30.039Z,18.33
2023-01-26T16:17:18.126Z,19.48
2023-01-26T16:20:07.243Z,16.15
2023-01-26T16:22:52.709Z,19.55
2023-01-26T16:25:39.423Z,9.98
2023-01-26T16:28:25.364Z,18.67
2023-01-26T16:31:16.937Z,13.07
2023-01-26T16:34:03.534Z,13.82
2023-01-26T16:36:50.606Z,12.40
2023-01-26T16:39:36.939Z,21.92
2023-01-26T16:42:22.781Z,15.02
2023-01-26T16:45:15.534Z,13.25
2023-01-26T16:48:01.305Z,19.92
2023-01-26T16:50:50.510Z,17.33
2023-01-26T16:53:37.480Z,17.55
2023-01-26T16:56:25.266Z,17.15
2023-01-26T16:59:11.272Z,9.13
2023-01-26T17:01:57.156Z,11.27
2023-01-26T17:04:42.632Z,8.13
2023-01-26T17:07:28.194Z,7.15
2023-01-26T17:10:16.352Z,18.15
2023-01-26T17:13:02.215Z,42.50
2023-01-26T17:15:48.133Z,28.77
2023-01-26T17:18:34.725Z,9.80
2023-01-26T17:21:21.055Z,11.13
2023-01-26T17:24:07.291Z,7.95
2023-01-26T17:26:54.685Z,9.10
2023-01-26T17:29:42.196Z,8.52
2023-01-26T17:32:28.126Z,10.98
2023-01-26T17:35:14.071Z,14.00
2023-01-26T17:38:00.220Z,8.32
2023-01-26T17:40:53.781Z,24.00
2023-01-26T17:43:44.262Z,28.55
2023-01-26T17:46:32.792Z,8.85
2023-01-26T17:49:21.156Z,6.72
2023-01-26T17:52:08.153Z,39.90
2023-01-26T17:54:53.958Z,12.15
2023-01-26T17:57:39.431Z,14.80
2023-01-26T18:00:26.810Z,36.50
2023-01-26T18:03:12.839Z,16.02
2023-01-26T18:05:58.835Z,13.00
2023-01-26T18:08:44.729Z,13.80
2023-01-26T18:11:30.756Z,15.15
2023-01-26T18:14:16.899Z,11.95
2023-01-26T18:17:04.490Z,9.18
2023-01-26T18:19:50.244Z,16.65
2023-01-26T18:22:35.945Z,12.02
2023-01-26T18:25:21.765Z,12.32
2023-01-26T18:28:08.331Z,9.65
2023-01-26T18:30:55.709Z,13.93
2023-01-26T18:33:43.210Z,16.65
2023-01-26T18:36:29.247Z,9.63
2023-01-26T18:39:16.754Z,20.50
2023-01-26T18:42:02.968Z,12.30
2023-01-26T18:44:48.489Z,10.60
2023-01-26T18:47:34.473Z,7.57
2023-01-26T18:50:22.864Z,19.33
2023-01-26T18:53:08.483Z,11.07
2023-01-26T18:56:02.015Z,13.20
2023-01-26T18:58:47.719Z,20.17
2023-01-26T19:01:33.611Z,18.27
2023-01-26T19:04:19.780Z,12.18
2023-01-26T19:07:06.827Z,14.32
2023-01-26T19:09:52.514Z,25.90
2023-01-26T19:12:38.133Z,17.13
2023-01-26T19:15:23.977Z,20.55
2023-01-26T19:18:09.772Z,20.35
2023-01-26T19:20:56.215Z,21.17
2023-01-26T19:23:43.968Z,20.10
2023-01-26T19:26:30.735Z,22.08
2023-01-26T19:29:16.719Z,17.40
2023-01-26T19:32:02.730Z,20.90
2023-01-26T19:34:48.535Z,18.23
2023-01-26T19:37:34.523Z,15.25
2023-01-26T19:40:22.016Z,13.23
2023-01-26T19:43:09.408Z,17.35
2023-01-26T19:45:56.753Z,13.35
2023-01-26T19:48:42.458Z,14.90
2023-01-26T19:51:29.332Z,21.58
2023-01-26T19:54:15.158Z,11.75
2023-01-26T19:57:02.247Z,12.63
2023-01-26T19:59:47.778Z,19.08
2023-01-26T20:02:34.334Z,15.95
2023-01-26T20:05:20.524Z,17.45
2023-01-26T20:08:06.171Z,20.55
2023-01-26T20:10:51.926Z,18.92
2023-01-26T20:13:39.330Z,18.38
2023-01-26T20:16:28.310Z,55.40
2023-01-26T20:19:14.283Z,33.97
2023-01-26T20:21:59.970Z,20.70
2023-01-26T20:24:45.791Z,13.60
2023-01-26T20:27:32.022Z,24.52
2023-01-26T20:30:19.568Z,16.35
2023-01-26T20:33:05.110Z,17.35
2023-01-26T20:35:50.895Z,17.05
2023-01-26T20:38:37.007Z,16.40
2023-01-26T20:41:24.105Z,12.27
2023-01-26T20:44:10.702Z,12.50
2023-01-26T20:46:58.699Z,11.20
2023-01-26T20:49:44.666Z,14.52
2023-01-26T20:52:30.536Z,14.48
2023-01-26T20:55:16.755Z,21.08
2023-01-26T20:58:02.333Z,18.23
2023-01-26T21:00:48.239Z,23.50
2023-01-26T21:03:36.543Z,21.48
2023-01-26T21:06:24.111Z,22.13
2023-01-26T21:09:12.558Z,24.13
2023-01-26T21:12:02.042Z,33.05
2023-01-26T21:14:47.855Z,15.65
2023-01-26T21:17:33.877Z,25.70
2023-01-26T21:20:21.126Z,22.15
2023-01-26T21:23:06.911Z,30.98
2023-01-26T21:25:58.492Z,18.40
2023-01-26T21:28:45.353Z,18.88
2023-01-26T21:31:32.562Z,26.27
2023-01-26T21:34:18.164Z,16.60
2023-01-26T21:37:06.545Z,22.75
2023-01-26T21:39:52.264Z,17.48
2023-01-26T21:42:37.931Z,21.77
2023-01-26T21:45:44.738Z,33.58
2023-01-26T21:48:38.057Z,33.03
2023-01-26T21:51:42.852Z,36.20
2023-01-26T21:54:30.091Z,27.90
2023-01-26T21:57:54.991Z,37.50
2023-01-26T22:00:43.227Z,57.55
2023-01-26T22:03:29.093Z,27.58
2023-01-26T22:06:15.002Z,22.65
2023-01-26T22:09:01.232Z,23.10
2023-01-26T22:11:50.629Z,24.98
2023-01-26T22:14:36.289Z,18.38
2023-01-26T22:17:21.815Z,24.40
2023-01-26T22:20:09.991Z,19.25
2023-01-26T22:22:55.878Z,26.15
2023-01-26T22:25:41.808Z,19.92
2023-01-26T22:28:29.242Z,21.17
2023-01-26T22:31:15.010Z,27.20
2023-01-26T22:34:01.774Z,19.75
2023-01-26T22:36:47.488Z,22.05
2023-01-26T22:39:33.099Z,19.95
2023-01-26T22:42:19.352Z,24.30
2023-01-26T22:45:08.039Z,24.17
2023-01-26T22:47:56.354Z,19.55
2023-01-26T22:50:42.396Z,17.40
2023-01-26T22:53:29.014Z,21.15
2023-01-26T22:56:14.837Z,17.92
2023-01-26T22:59:01.075Z,20.92
2023-01-26T23:01:48.487Z,18.63
2023-01-26T23:04:34.784Z,20.50
2023-01-26T23:07:20.894Z,21.90
2023-01-26T23:10:15.320Z,12.02
2023-01-26T23:13:01.210Z,18.05
2023-01-26T23:15:50.575Z,15.77
2023-01-26T23:18:41.521Z,10.82
2023-01-26T23:21:28.691Z,10.52
2023-01-26T23:24:14.724Z,15.35
2023-01-26T23:27:01.650Z,9.73
2023-01-26T23:29:47.684Z,11.70
2023-01-26T23:32:36.271Z,6.28
2023-01-26T23:35:26.234Z,8.40
2023-01-26T23:38:12.528Z,6.93
2023-01-26T23:41:00.400Z,9.32
2023-01-26T23:43:46.493Z,9.73
2023-01-26T23:46:32.389Z,7.03
2023-01-26T23:49:18.435Z,9.85
2023-01-26T23:52:05.824Z,10.73
2023-01-26T23:54:51.733Z,9.48
2023-01-26T23:57:37.215Z,8.98
